Paul Philippe Ploquin

Paul Philippe Ploquin

Statistiques 2026

  • Courses courues : 406
  • Nb de victoires : 46
  • Nb de places : 131
  • Écart gagnant : 22
  • Réussite à la gagne : 11%
  • Réussite à la place : 32%
Musique : 0a 0m 0a 5m 0a Da Da 7a Da Da Da Da 4a Dm 8a 2a Da 5a
DateRangCatégorieAlloc.Dist.HippodromeChevalRed. KmSpé.
25/09/25 D Trot 35 000€ 2 850m Laval Jezabelle Bie Attelé lire

A été disqualifiée au dernier passage en face alors qu'elle était loin.

25/09/25 D Trot 21 000€ 2 850m Laval Labrax du Sky Attelé
25/09/25 3 Trot 18 000€ 2 850m Laval Mallaury d'Avel 1'16"6 Monté
25/09/25 D Trot 15 000€ 2 050m Laval Nominee Attelé
04/10/25 D Trot 27 000€ 2 850m Laval Jenna Dairpet Attelé
04/10/25 0 Trot 27 000€ 2 850m Laval Kristo Star Attelé
04/10/25 0 Trot 21 000€ 2 850m Laval Lalik Attelé
04/10/25 4 Trot 35 000€ 2 850m Laval Forever d'Ariane 1'14"2 Attelé
04/10/25 D Trot 21 000€ 2 850m Laval Lipska Attelé
04/10/25 7 Trot 21 000€ 2 850m Laval Lonely Rider 1'16"0 Monté
04/10/25 D Trot 21 000€ 2 850m Laval Marechal du Levant Attelé
29/08/21 3 Trot 15 000€ 2 850m Laval Idola Phedo 1'16"7 Monté
29/08/21 4 Trot 13 000€ 2 850m Laval Icaline Dieschoot 1'17"5 Attelé
29/08/21 7 Trot 13 000€ 2 850m Laval Irresistible Paj 1'18"5 Attelé
20/09/21 0 Trot 36 000€ 2 850m Laval Cadence Del Fretta Attelé lire

N'a joué aucun rôle utile.

20/09/21 7 Trot 18 000€ 2 850m Laval Hermiona 1'16"9 Attelé
20/09/21 3 Trot 20 000€ 2 850m Laval Glossy Thourjan 1'14"4 Monté
20/11/21 6 Trot 16 000€ 2 850m Laval Happy Souveraine 1'16"2 Attelé
12/12/21 7 Trot 14 000€ 2 850m Laval Irish Bond 1'20"0 Monté
12/12/21 1 Trot 11 000€ 2 050m Laval Je T'Aime 1'17"0 Attelé
12/12/21 1 Trot 13 000€ 2 850m Laval Insaisissable Duo 1'16"7 Attelé
12/12/21 4 Trot 21 000€ 2 850m Laval Furbizia Dodville 1'13"6 Attelé
19/02/22 6 Trot 20 000€ 2 850m Laval Hacker Meslois 1'16"9 Attelé
19/02/22 D Trot 14 000€ 2 225m Laval Java du Plessis Attelé
04/03/22 7 Trot 20 000€ 2 850m Laval Happy Souveraine 1'16"6 Attelé
04/03/22 5 Trot 20 000€ 2 850m Laval Hacker Perrine 1'16"7 Attelé
04/03/22 6 Trot 33 000€ 2 850m Laval Concerto Royal 1'14"7 Attelé
04/03/22 2 Trot 18 000€ 2 225m Laval Ibera 1'16"8 Attelé
04/03/22 D Trot 18 000€ 2 850m Laval Ivanhoe Jarzeen Monté
10/03/22 3 Trot 18 000€ 2 650m Laval Idole du Rif 1'17"4 Attelé
10/03/22 1 Trot 20 000€ 2 850m Laval Hautentica 1'13"9 Monté
02/04/22 D Trot 23 000€ 2 850m Laval Hautentica Monté
02/04/22 3 Trot 20 000€ 2 850m Laval Irresistible Paj 1'15"3 Attelé
02/04/22 3 Trot 18 000€ 2 850m Laval Irose Speed 1'14"7 Monté
28/04/22 5 Trot 23 000€ 2 850m Laval Halfan Speed 1'15"0 Attelé
28/04/22 D Trot 33 000€ 2 850m Laval Concerto Royal Attelé
28/04/22 5 Trot 20 000€ 2 850m Laval Iorka de Bellande 1'16"1 Attelé
06/05/22 9 Trot 20 000€ 2 850m Laval Jaministar 1'18"4 Attelé
06/05/22 4 Trot 29 000€ 2 850m Laval Fifty Barbes 1'14"5 Monté
06/05/22 1 Trot 26 000€ 2 850m Laval Guili Guili 1'14"2 Attelé
01/03/19 4 Trot 16 000€ 2 875m Laval For Baby Louis 1'17"1 Monté
07/03/19 3 Trot 20 000€ 2 875m Laval Energie Dairpet 1'17"0 Monté
30/03/19 3 Trot 20 000€ 2 875m Laval Emondevillaise 1'15"1 Monté
05/06/19 1 Trot 22 000€ 2 875m Laval Baxo des Caillons 1'13"8 Monté lire

Principal animateur, s'est montré nettement le plus fort pour finir.

21/06/19 D Trot 15 000€ 2 225m Laval Gala du Chatelet Monté
27/06/19 5 Trot 27 000€ 2 875m Laval Chachoo Bond 1'15"0 Attelé
27/06/19 4 Trot 20 000€ 2 875m Laval Energie Dairpet 1'16"1 Monté
27/09/19 6 Trot 34 000€ 2 875m Laval Destin Carisaie 1'14"6 Attelé
27/09/19 D Trot 16 000€ 2 875m Laval Garlingari Quesnot Monté
04/10/19 8 Trot 18 000€ 2 875m Laval Falcao de Chenu 1'18"1 Monté